createdAt,value
2023-05-09T00:02:26.325Z,37.55
2023-05-09T00:04:56.970Z,37.82
2023-05-09T00:07:26.062Z,37.73
2023-05-09T00:09:54.417Z,37.77
2023-05-09T00:12:28.549Z,37.74
2023-05-09T00:15:02.473Z,37.69
2023-05-09T00:17:31.119Z,37.83
2023-05-09T00:20:01.761Z,37.76
2023-05-09T00:22:30.554Z,37.85
2023-05-09T00:24:59.267Z,37.76
2023-05-09T00:27:32.286Z,37.72
2023-05-09T00:30:05.050Z,37.74
2023-05-09T00:32:35.761Z,37.69
2023-05-09T00:35:04.591Z,37.77
2023-05-09T00:37:35.286Z,37.63
2023-05-09T00:40:03.951Z,37.75
2023-05-09T00:42:35.339Z,37.83
2023-05-09T00:45:04.357Z,37.53
2023-05-09T00:47:33.064Z,37.77
2023-05-09T00:50:02.169Z,37.83
2023-05-09T00:52:31.311Z,37.77
2023-05-09T00:55:00.281Z,37.80
2023-05-09T00:57:28.825Z,37.64
2023-05-09T00:59:59.485Z,37.85
2023-05-09T01:02:30.611Z,37.63
2023-05-09T01:05:02.100Z,37.91
2023-05-09T01:07:39.024Z,37.43
2023-05-09T01:10:16.887Z,37.96
2023-05-09T01:12:49.215Z,37.74
2023-05-09T01:15:29.952Z,37.72
2023-05-09T01:18:02.824Z,37.86
2023-05-09T01:20:35.192Z,37.69
2023-05-09T01:23:22.632Z,37.73
2023-05-09T01:26:05.233Z,37.76
2023-05-09T01:28:55.237Z,37.76
2023-05-09T01:31:29.545Z,37.67
2023-05-09T01:34:02.104Z,37.63
2023-05-09T01:36:34.139Z,37.74
2023-05-09T01:39:05.589Z,37.71
2023-05-09T01:41:37.482Z,37.60
2023-05-09T01:44:10.058Z,37.70
2023-05-09T01:46:41.886Z,37.59
2023-05-09T01:49:10.960Z,37.60
2023-05-09T01:51:43.861Z,37.68
2023-05-09T01:54:13.277Z,37.65
2023-05-09T01:56:47.118Z,37.61
2023-05-09T01:59:17.356Z,37.59
2023-05-09T02:01:50.112Z,37.65
2023-05-09T02:04:21.924Z,37.79
2023-05-09T02:06:52.533Z,37.55
2023-05-09T02:09:22.786Z,37.90
2023-05-09T02:11:51.160Z,37.60
2023-05-09T02:14:19.583Z,37.87
2023-05-09T02:16:50.261Z,37.58
2023-05-09T02:19:18.878Z,37.59
2023-05-09T02:21:47.342Z,37.57
2023-05-09T02:24:15.923Z,37.60
2023-05-09T02:26:44.787Z,37.64
2023-05-09T02:29:14.927Z,37.59
2023-05-09T02:31:45.283Z,37.51
2023-05-09T02:34:17.464Z,37.40
2023-05-09T02:36:46.258Z,37.73
2023-05-09T02:39:17.818Z,37.49
2023-05-09T02:41:50.516Z,37.60
2023-05-09T02:44:18.984Z,37.50
2023-05-09T02:46:48.995Z,37.49
2023-05-09T02:49:31.339Z,37.63
2023-05-09T02:52:00.752Z,37.53
2023-05-09T02:54:29.300Z,37.52
2023-05-09T02:56:57.863Z,37.51
2023-05-09T02:59:27.175Z,37.61
2023-05-09T03:01:56.013Z,37.72
2023-05-09T03:04:30.663Z,37.61
2023-05-09T03:06:59.750Z,37.52
2023-05-09T03:09:27.884Z,37.45
2023-05-09T03:11:56.725Z,37.49
2023-05-09T03:14:25.598Z,37.33
2023-05-09T03:16:54.103Z,37.38
2023-05-09T03:19:22.733Z,37.57
2023-05-09T03:21:53.846Z,37.46
2023-05-09T03:24:23.351Z,37.45
2023-05-09T03:26:51.834Z,37.39
2023-05-09T03:29:21.936Z,37.57
2023-05-09T03:31:50.179Z,37.63
2023-05-09T03:34:19.576Z,37.45
2023-05-09T03:36:47.807Z,37.49
2023-05-09T03:39:19.192Z,37.41
2023-05-09T03:41:47.370Z,37.54
2023-05-09T03:44:16.755Z,37.73
2023-05-09T03:46:46.912Z,37.51
2023-05-09T03:49:15.680Z,37.56
2023-05-09T03:51:44.086Z,37.50
2023-05-09T03:54:14.074Z,37.44
2023-05-09T03:56:45.159Z,37.49
2023-05-09T03:59:13.273Z,37.44
2023-05-09T04:01:41.850Z,37.50
2023-05-09T04:04:10.243Z,37.50
2023-05-09T04:06:38.873Z,37.54
2023-05-09T04:09:07.139Z,37.38
2023-05-09T04:11:37.438Z,37.44
2023-05-09T04:14:07.506Z,37.45
2023-05-09T04:16:36.040Z,37.49
2023-05-09T04:19:04.620Z,37.48
2023-05-09T04:21:33.650Z,37.45
2023-05-09T04:24:01.809Z,37.54
2023-05-09T04:26:32.780Z,37.49
2023-05-09T04:29:01.705Z,37.40
2023-05-09T04:31:32.768Z,37.60
2023-05-09T04:34:05.341Z,37.40
2023-05-09T04:36:33.975Z,37.48
2023-05-09T04:39:02.189Z,37.72
2023-05-09T04:41:30.254Z,37.64
2023-05-09T04:43:58.293Z,37.77
2023-05-09T04:46:26.569Z,37.68
2023-05-09T04:48:56.151Z,37.72
2023-05-09T04:51:24.345Z,37.75
2023-05-09T04:53:53.535Z,37.79
2023-05-09T04:56:22.073Z,37.73
2023-05-09T04:58:50.471Z,37.73
2023-05-09T05:01:18.599Z,37.70
2023-05-09T05:03:47.275Z,37.67
2023-05-09T05:06:16.839Z,37.67
2023-05-09T05:08:45.180Z,37.61
2023-05-09T05:11:14.081Z,37.79
2023-05-09T05:13:43.540Z,37.63
2023-05-09T05:16:11.737Z,37.97
2023-05-09T05:18:39.904Z,37.70
2023-05-09T05:21:08.632Z,37.71
2023-05-09T05:23:38.028Z,37.72
2023-05-09T05:26:06.397Z,37.57
2023-05-09T05:28:34.781Z,37.80
2023-05-09T05:31:02.893Z,37.71
2023-05-09T05:33:31.962Z,37.74
2023-05-09T05:36:00.043Z,37.70
2023-05-09T05:38:28.166Z,37.74
2023-05-09T05:40:57.940Z,37.82
2023-05-09T05:43:28.617Z,37.71
2023-05-09T05:45:56.736Z,37.79
2023-05-09T05:48:27.066Z,37.74
2023-05-09T05:50:55.545Z,37.74
2023-05-09T05:53:24.012Z,37.81
2023-05-09T05:55:53.426Z,37.76
2023-05-09T05:58:22.912Z,37.81
2023-05-09T06:00:53.704Z,37.84
2023-05-09T06:03:21.901Z,37.80
2023-05-09T06:05:51.082Z,37.82
2023-05-09T06:08:19.217Z,37.90
2023-05-09T06:10:47.374Z,37.91
2023-05-09T06:13:15.644Z,37.83
2023-05-09T06:15:45.292Z,37.99
2023-05-09T06:18:14.936Z,37.89
2023-05-09T06:20:43.247Z,37.84
2023-05-09T06:23:11.320Z,37.99
2023-05-09T06:25:39.368Z,37.97
2023-05-09T06:28:07.474Z,37.83
2023-05-09T06:30:35.783Z,37.95
2023-05-09T06:33:06.218Z,37.92
2023-05-09T06:35:36.911Z,37.90
2023-05-09T06:38:05.146Z,37.99
2023-05-09T06:40:33.255Z,38.04
2023-05-09T06:43:01.480Z,37.99
2023-05-09T06:45:30.880Z,37.98
2023-05-09T06:47:59.882Z,38.04
2023-05-09T06:50:31.472Z,38.09
2023-05-09T06:53:00.936Z,38.10
2023-05-09T06:55:29.052Z,38.14
2023-05-09T06:57:57.826Z,38.14
2023-05-09T07:00:25.915Z,38.17
2023-05-09T07:02:54.103Z,38.20
2023-05-09T07:05:22.706Z,38.25
2023-05-09T07:07:55.063Z,38.20
2023-05-09T07:10:23.447Z,38.21
2023-05-09T07:12:52.059Z,38.33
2023-05-09T07:15:29.106Z,38.36
2023-05-09T07:18:05.704Z,38.34
2023-05-09T07:20:33.797Z,38.34
2023-05-09T07:23:04.323Z,38.30
2023-05-09T07:25:32.629Z,38.29
2023-05-09T07:28:01.726Z,38.36
2023-05-09T07:30:29.764Z,38.23
2023-05-09T07:32:57.846Z,38.37
2023-05-09T07:35:26.665Z,38.35
2023-05-09T07:37:54.795Z,38.45
2023-05-09T07:40:24.267Z,38.38
2023-05-09T07:42:56.038Z,38.41
2023-05-09T07:45:24.667Z,38.42
2023-05-09T07:47:57.376Z,38.50
2023-05-09T07:50:25.825Z,38.23
2023-05-09T07:53:04.708Z,38.89
2023-05-09T07:55:36.888Z,38.40
2023-05-09T07:58:09.196Z,38.58
2023-05-09T08:00:37.572Z,38.50
2023-05-09T08:03:05.734Z,38.62
2023-05-09T08:05:35.672Z,38.60
2023-05-09T08:08:05.698Z,38.66
2023-05-09T08:10:35.918Z,38.61
2023-05-09T08:13:03.990Z,38.70
2023-05-09T08:15:32.806Z,38.80
2023-05-09T08:18:01.347Z,38.58
2023-05-09T08:20:31.424Z,38.59
2023-05-09T08:23:00.479Z,38.72
2023-05-09T08:25:29.853Z,38.65
2023-05-09T08:27:59.384Z,38.82
2023-05-09T08:30:29.547Z,38.84
2023-05-09T08:33:02.110Z,39.07
2023-05-09T08:35:30.689Z,38.76
2023-05-09T08:37:59.088Z,38.96
2023-05-09T08:40:31.279Z,38.88
2023-05-09T08:43:01.084Z,38.76
2023-05-09T08:45:32.588Z,38.81
2023-05-09T08:48:05.279Z,38.57
2023-05-09T08:50:33.493Z,38.82
2023-05-09T08:53:02.384Z,38.87
2023-05-09T08:55:32.294Z,38.87
2023-05-09T08:58:02.625Z,38.77
2023-05-09T09:00:32.571Z,38.73
2023-05-09T09:03:04.383Z,38.84
2023-05-09T09:08:11.016Z,38.83
2023-05-09T09:10:43.520Z,38.70
2023-05-09T09:13:16.759Z,38.88
2023-05-09T09:15:47.250Z,38.82
2023-05-09T09:18:22.243Z,38.83
2023-05-09T09:20:54.336Z,38.93
2023-05-09T09:23:26.728Z,38.70
2023-05-09T09:26:04.971Z,38.73
2023-05-09T09:28:38.271Z,38.73
2023-05-09T09:31:21.394Z,38.89
2023-05-09T09:33:50.636Z,38.73
2023-05-09T09:36:27.375Z,38.73
2023-05-09T09:39:01.661Z,38.93
2023-05-09T09:41:35.268Z,38.79
2023-05-09T09:44:10.298Z,38.82
2023-05-09T09:46:46.654Z,38.97
2023-05-09T09:49:16.500Z,38.80
2023-05-09T09:51:45.267Z,38.70
2023-05-09T09:54:14.191Z,38.57
2023-05-09T09:56:46.593Z,38.74
2023-05-09T09:59:17.575Z,38.60
2023-05-09T10:01:59.541Z,38.99
2023-05-09T10:04:39.030Z,38.48
2023-05-09T10:07:13.688Z,38.82
2023-05-09T10:09:44.240Z,38.75
2023-05-09T10:12:15.370Z,38.79
2023-05-09T10:14:45.496Z,38.73
2023-05-09T10:17:16.197Z,38.86
2023-05-09T10:19:48.063Z,38.72
2023-05-09T10:22:18.023Z,38.65
2023-05-09T10:24:49.703Z,38.76
2023-05-09T10:27:22.384Z,38.78
2023-05-09T10:29:58.834Z,38.72
2023-05-09T10:32:33.884Z,38.82
2023-05-09T10:35:06.992Z,38.75
2023-05-09T10:37:35.571Z,38.76
2023-05-09T10:40:07.759Z,38.79
2023-05-09T10:42:37.464Z,38.82
2023-05-09T10:45:09.725Z,38.75
2023-05-09T10:47:39.284Z,38.74
2023-05-09T10:50:08.526Z,38.85
2023-05-09T10:52:37.156Z,38.84
2023-05-09T10:55:07.106Z,38.74
2023-05-09T10:57:40.747Z,38.92
2023-05-09T11:00:11.805Z,38.90
2023-05-09T11:02:39.993Z,38.87
2023-05-09T11:05:15.988Z,38.93
2023-05-09T11:07:44.623Z,38.93
2023-05-09T11:10:18.128Z,38.91
2023-05-09T11:12:59.433Z,39.16
2023-05-09T11:15:29.315Z,38.97
2023-05-09T11:18:08.281Z,39.11
2023-05-09T11:20:37.623Z,38.85
2023-05-09T11:23:08.730Z,38.89
2023-05-09T11:25:37.255Z,38.99
2023-05-09T11:28:05.665Z,38.98
2023-05-09T11:30:41.844Z,39.07
2023-05-09T11:33:24.421Z,39.30
2023-05-09T11:36:18.416Z,39.21
2023-05-09T11:38:47.976Z,38.89
2023-05-09T11:41:17.527Z,38.75
2023-05-09T11:43:45.963Z,38.94
2023-05-09T11:46:15.603Z,38.93
2023-05-09T11:48:44.058Z,38.89
2023-05-09T11:51:19.139Z,38.94
2023-05-09T11:53:48.217Z,38.87
2023-05-09T11:56:20.027Z,39.01
2023-05-09T11:58:48.643Z,38.84
2023-05-09T12:01:19.643Z,38.84
2023-05-09T12:03:48.884Z,38.90
2023-05-09T12:06:18.557Z,38.76
2023-05-09T12:08:47.768Z,38.84
2023-05-09T12:11:16.553Z,38.86
2023-05-09T12:13:48.934Z,38.96
2023-05-09T12:16:19.696Z,38.79
2023-05-09T12:18:50.613Z,38.85
2023-05-09T12:21:19.006Z,38.74
2023-05-09T12:23:52.405Z,38.78
2023-05-09T12:26:22.956Z,38.81
2023-05-09T12:28:51.864Z,38.80
2023-05-09T12:31:22.749Z,38.77
2023-05-09T12:33:50.976Z,38.82
2023-05-09T12:36:19.119Z,38.92
2023-05-09T12:38:54.675Z,38.90
2023-05-09T12:41:36.860Z,38.79
2023-05-09T12:44:10.809Z,38.71
2023-05-09T12:46:42.122Z,38.73
2023-05-09T12:49:22.577Z,38.89
2023-05-09T12:51:52.801Z,38.70
2023-05-09T12:54:25.750Z,38.79
2023-05-09T12:56:56.966Z,38.77
2023-05-09T12:59:26.821Z,38.74
2023-05-09T13:01:58.700Z,38.73
2023-05-09T13:04:28.450Z,38.79
2023-05-09T13:07:00.174Z,38.84
2023-05-09T13:09:31.288Z,38.72
2023-05-09T13:12:00.759Z,38.86
2023-05-09T13:14:28.958Z,38.76
2023-05-09T13:16:59.071Z,38.66
2023-05-09T13:19:27.797Z,38.75
2023-05-09T13:21:58.394Z,38.70
2023-05-09T13:24:26.543Z,38.89
2023-05-09T13:26:55.471Z,38.78
2023-05-09T13:29:25.901Z,38.89
2023-05-09T13:31:54.023Z,38.75
2023-05-09T13:34:23.492Z,38.64
2023-05-09T13:36:51.776Z,38.81
2023-05-09T13:39:19.842Z,38.71
2023-05-09T13:41:48.941Z,38.88
2023-05-09T13:44:17.272Z,38.80
2023-05-09T13:46:47.874Z,38.83
2023-05-09T13:49:20.541Z,38.87
2023-05-09T13:51:50.873Z,38.80
2023-05-09T13:54:20.052Z,38.82
2023-05-09T13:56:48.614Z,38.90
2023-05-09T13:59:16.812Z,38.71
2023-05-09T14:01:45.026Z,38.92
2023-05-09T14:04:14.140Z,39.01
2023-05-09T14:06:48.221Z,38.74
2023-05-09T14:09:18.419Z,38.80
2023-05-09T14:11:51.704Z,38.84
2023-05-09T14:14:19.977Z,38.90
2023-05-09T14:16:48.486Z,38.91
2023-05-09T14:19:17.728Z,38.87
2023-05-09T14:21:47.011Z,38.77
2023-05-09T14:24:18.878Z,38.93
2023-05-09T14:26:48.882Z,38.69
2023-05-09T14:29:18.371Z,38.68
2023-05-09T14:31:46.610Z,38.77
2023-05-09T14:34:15.527Z,38.66
2023-05-09T14:36:44.172Z,38.83
2023-05-09T14:39:12.902Z,38.76
2023-05-09T14:41:42.296Z,38.86
2023-05-09T14:44:12.262Z,38.89
2023-05-09T14:46:40.422Z,38.90
2023-05-09T14:49:09.533Z,38.88
2023-05-09T14:51:38.066Z,39.02
2023-05-09T14:54:07.025Z,39.14
2023-05-09T14:56:36.338Z,38.87
2023-05-09T14:59:06.218Z,38.82
2023-05-09T15:01:35.839Z,38.99
2023-05-09T15:04:04.550Z,38.97
2023-05-09T15:06:32.814Z,38.96
2023-05-09T15:09:00.909Z,38.73
2023-05-09T15:11:36.385Z,38.98
2023-05-09T15:14:14.966Z,38.99
2023-05-09T15:16:47.544Z,38.87
2023-05-09T15:19:16.118Z,38.93
2023-05-09T15:21:45.428Z,39.02
2023-05-09T15:24:14.566Z,38.82
2023-05-09T15:26:42.811Z,38.83
2023-05-09T15:29:11.132Z,39.00
2023-05-09T15:31:42.409Z,38.92
2023-05-09T15:34:14.361Z,39.03
2023-05-09T15:36:42.736Z,39.04
2023-05-09T15:39:10.982Z,39.18
2023-05-09T15:41:39.530Z,39.07
2023-05-09T15:44:07.719Z,39.09
2023-05-09T15:46:36.069Z,39.20
2023-05-09T15:49:07.657Z,39.06
2023-05-09T15:51:37.327Z,39.02
2023-05-09T15:54:07.216Z,39.01
2023-05-09T15:56:36.569Z,39.29
2023-05-09T15:59:04.758Z,39.11
2023-05-09T16:01:35.286Z,39.04
2023-05-09T16:04:05.458Z,39.07
2023-05-09T16:06:34.223Z,39.12
2023-05-09T16:09:08.406Z,39.02
2023-05-09T16:11:37.051Z,39.02
2023-05-09T16:14:11.942Z,39.22
2023-05-09T16:16:40.404Z,39.09
2023-05-09T16:19:08.774Z,39.14
2023-05-09T16:21:37.934Z,39.00
2023-05-09T16:24:08.956Z,39.08
2023-05-09T16:26:37.893Z,39.10
2023-05-09T16:29:06.097Z,38.88
2023-05-09T16:31:35.644Z,39.01
2023-05-09T16:34:04.128Z,39.14
2023-05-09T16:36:33.635Z,39.07
2023-05-09T16:39:02.040Z,39.26
2023-05-09T16:41:31.709Z,39.17
2023-05-09T16:44:00.297Z,39.23
2023-05-09T16:46:29.951Z,39.27
2023-05-09T16:48:58.679Z,39.19
2023-05-09T16:51:27.265Z,39.21
2023-05-09T16:53:55.484Z,39.26
2023-05-09T16:56:23.967Z,39.30
2023-05-09T16:58:53.553Z,39.21
2023-05-09T17:01:21.763Z,39.35
2023-05-09T17:03:49.943Z,39.27
2023-05-09T17:06:18.804Z,39.27
2023-05-09T17:08:47.336Z,39.22
2023-05-09T17:11:16.612Z,39.03
2023-05-09T17:13:45.074Z,39.23
2023-05-09T17:16:14.714Z,39.15
2023-05-09T17:18:46.200Z,39.20
2023-05-09T17:21:15.117Z,39.19
2023-05-09T17:23:45.856Z,39.23
2023-05-09T17:26:14.170Z,39.19
2023-05-09T17:28:42.765Z,39.09
2023-05-09T17:31:13.220Z,39.16
2023-05-09T17:33:45.764Z,39.17
2023-05-09T17:36:15.141Z,39.11
2023-05-09T17:38:43.896Z,39.22
2023-05-09T17:41:12.505Z,39.18
2023-05-09T17:43:42.955Z,39.13
2023-05-09T17:46:14.891Z,39.25
2023-05-09T17:48:44.692Z,39.26
2023-05-09T17:51:13.171Z,39.06
2023-05-09T17:53:41.371Z,39.21
2023-05-09T17:56:11.455Z,39.11
2023-05-09T17:58:45.462Z,39.08
2023-05-09T18:01:15.748Z,39.10
2023-05-09T18:03:48.429Z,38.94
2023-05-09T18:06:17.004Z,39.11
2023-05-09T18:08:46.678Z,38.99
2023-05-09T18:11:15.521Z,38.97
2023-05-09T18:13:43.690Z,39.09
2023-05-09T18:16:12.328Z,39.14
2023-05-09T18:18:49.571Z,39.01
2023-05-09T18:21:20.570Z,38.97
2023-05-09T18:23:48.794Z,39.00
2023-05-09T18:26:17.828Z,39.05
2023-05-09T18:28:46.986Z,39.06
2023-05-09T18:31:15.475Z,39.00
2023-05-09T18:33:46.461Z,39.04
2023-05-09T18:36:16.628Z,39.03
2023-05-09T18:38:48.289Z,39.05
2023-05-09T18:41:16.869Z,39.01
2023-05-09T18:43:46.931Z,39.01
2023-05-09T18:46:18.146Z,39.01
2023-05-09T18:48:48.369Z,38.88
2023-05-09T18:51:16.747Z,38.92
2023-05-09T18:53:45.074Z,38.93
2023-05-09T18:56:13.255Z,38.91
2023-05-09T18:58:42.763Z,38.94
2023-05-09T19:01:12.729Z,38.93
2023-05-09T19:03:45.577Z,38.86
2023-05-09T19:06:16.840Z,38.86
2023-05-09T19:08:46.042Z,38.85
2023-05-09T19:11:15.172Z,38.94
2023-05-09T19:13:48.786Z,38.88
2023-05-09T19:16:21.670Z,38.91
2023-05-09T19:18:49.939Z,38.85
2023-05-09T19:21:19.530Z,38.86
2023-05-09T19:23:51.727Z,38.81
2023-05-09T19:26:22.150Z,38.81
2023-05-09T19:28:50.836Z,38.76
2023-05-09T19:31:20.667Z,38.69
2023-05-09T19:33:49.795Z,38.64
2023-05-09T19:36:19.476Z,38.67
2023-05-09T19:38:47.795Z,38.75
2023-05-09T19:41:15.916Z,38.87
2023-05-09T19:43:44.068Z,38.78
2023-05-09T19:46:12.264Z,38.74
2023-05-09T19:48:40.329Z,38.89
2023-05-09T19:51:12.466Z,38.87
2023-05-09T19:53:42.478Z,38.89
2023-05-09T19:56:11.794Z,39.00
2023-05-09T19:58:40.245Z,38.75
2023-05-09T20:01:08.418Z,38.80
2023-05-09T20:03:37.225Z,38.92
2023-05-09T20:06:10.287Z,38.73
2023-05-09T20:08:38.515Z,38.81
2023-05-09T20:11:09.496Z,38.72
2023-05-09T20:13:55.350Z,38.71
2023-05-09T20:16:23.885Z,38.76
2023-05-09T20:18:55.356Z,38.64
2023-05-09T20:21:23.715Z,38.71
2023-05-09T20:23:52.213Z,38.69
2023-05-09T20:26:25.008Z,38.68
2023-05-09T20:29:01.654Z,38.62
2023-05-09T20:31:33.033Z,38.50
2023-05-09T20:34:01.797Z,38.73
2023-05-09T20:36:30.124Z,38.60
2023-05-09T20:38:58.596Z,38.78
2023-05-09T20:41:30.070Z,38.77
2023-05-09T20:44:06.770Z,38.64
2023-05-09T20:46:35.454Z,38.71
2023-05-09T20:49:04.260Z,38.53
2023-05-09T20:51:32.712Z,38.52
2023-05-09T20:54:01.119Z,38.51
2023-05-09T20:56:31.003Z,38.51
2023-05-09T20:59:01.099Z,38.54
2023-05-09T21:01:29.775Z,38.53
2023-05-09T21:03:59.758Z,38.46
2023-05-09T21:06:28.324Z,38.49
2023-05-09T21:08:56.558Z,38.51
2023-05-09T21:11:25.316Z,38.46
2023-05-09T21:13:54.964Z,38.51
2023-05-09T21:16:23.258Z,38.55
2023-05-09T21:18:51.694Z,38.30
2023-05-09T21:21:19.908Z,38.45
2023-05-09T21:23:48.107Z,38.33
2023-05-09T21:26:16.626Z,38.55
2023-05-09T21:28:44.887Z,38.44
2023-05-09T21:31:14.594Z,38.42
2023-05-09T21:33:42.823Z,38.39
2023-05-09T21:36:11.177Z,38.41
2023-05-09T21:38:39.476Z,38.21
2023-05-09T21:41:07.662Z,38.40
2023-05-09T21:43:36.436Z,38.47
2023-05-09T21:46:06.246Z,38.45
2023-05-09T21:48:36.108Z,38.37
2023-05-09T21:51:05.003Z,38.43
2023-05-09T21:53:33.349Z,38.37
2023-05-09T21:56:01.596Z,38.37
2023-05-09T21:58:29.686Z,38.45
2023-05-09T22:00:57.767Z,38.24
2023-05-09T22:03:26.326Z,38.32
2023-05-09T22:05:55.953Z,38.31
2023-05-09T22:08:24.384Z,38.38
2023-05-09T22:10:52.730Z,38.33
2023-05-09T22:13:20.862Z,38.38
2023-05-09T22:15:49.589Z,38.28
2023-05-09T22:18:17.750Z,38.30
2023-05-09T22:20:46.151Z,38.19
2023-05-09T22:23:15.653Z,38.33
2023-05-09T22:25:43.946Z,38.34
2023-05-09T22:28:12.065Z,38.33
2023-05-09T22:30:40.206Z,38.21
2023-05-09T22:33:08.352Z,38.26
2023-05-09T22:35:36.687Z,38.02
2023-05-09T22:38:04.934Z,37.91
2023-05-09T22:40:34.745Z,38.23
2023-05-09T22:43:02.994Z,38.26
2023-05-09T22:45:31.397Z,38.25
2023-05-09T22:47:59.501Z,38.14
2023-05-09T22:50:27.606Z,38.30
2023-05-09T22:52:55.794Z,38.16
2023-05-09T22:55:24.266Z,38.11
2023-05-09T22:57:53.817Z,38.19
2023-05-09T23:00:22.155Z,38.25
2023-05-09T23:02:50.675Z,38.29
2023-05-09T23:05:19.324Z,38.25
2023-05-09T23:07:47.900Z,38.22
2023-05-09T23:10:16.370Z,38.23
2023-05-09T23:12:45.257Z,38.25
2023-05-09T23:15:14.833Z,38.11
2023-05-09T23:17:43.012Z,38.06
2023-05-09T23:20:11.917Z,38.19
2023-05-09T23:22:40.182Z,38.17
2023-05-09T23:25:09.845Z,38.00
2023-05-09T23:27:40.711Z,38.13
2023-05-09T23:30:10.713Z,38.15
2023-05-09T23:32:40.336Z,38.15
2023-05-09T23:35:08.956Z,37.94
2023-05-09T23:37:37.086Z,38.06
2023-05-09T23:40:05.616Z,38.08
2023-05-09T23:42:33.721Z,38.15
2023-05-09T23:45:01.872Z,38.11
2023-05-09T23:47:30.089Z,38.08
2023-05-09T23:49:59.712Z,37.96
2023-05-09T23:52:27.829Z,38.03
2023-05-09T23:54:56.119Z,38.08
2023-05-09T23:57:24.282Z,37.93
2023-05-09T23:59:52.379Z,37.97
